Terminal Aerodrome Forecast
Issued by NWS Wilmington, OH

Current Version | Previous Version | Graphics & Text | Print | Product List | Glossary On
Versions: 1 2 3 4 5 6 7 8 9 10 11 12 13 14 15 16 17 18 19 20 21 22
993
FTUS41 KILN 100955 AAB
TAFCMH
TAF AMD
KCMH 100955Z 1010/1106 24008KT P6SM -SN FEW025 OVC035
     FM101400 25008KT P6SM BKN080
     FM102300 VRB03KT P6SM BKN080=

USA.gov is the U.S. government's official web portal to all federal, state and local government web resources and services.